Time;durP1;ratioP1;P1;durP2;ratioP2;P2;SDS_P1;SDS_P2;PMS_P1;PMS_P2;Temp;Humidity;BMP_temperature;BMP_pressure;BME280_temperature;BME280_humidity;BME280_pressure;Samples;Min_cycle;Max_cycle;Signal;HPM_P1;HPM_P2
2022/05/09 00:02:20;;;;;;;117.97;106.65;;;11.90;54.00;;;;;;5055589;28;20051;-78
2022/05/09 00:04:49;;;;;;;116.18;104.63;;;11.80;54.10;;;;;;5073648;28;20059;-78
2022/05/09 00:07:16;;;;;;;115.88;104.78;;;11.80;54.20;;;;;;5055502;28;20055;-78
2022/05/09 00:09:43;;;;;;;115.20;104.07;;;11.70;54.30;;;;;;5055833;28;20208;-78
2022/05/09 00:12:10;;;;;;;116.75;105.35;;;11.70;54.40;;;;;;5055614;28;20576;-78
2022/05/09 00:14:37;;;;;;;116.30;104.75;;;11.70;54.30;;;;;;5074079;28;20136;-78
2022/05/09 00:17:05;;;;;;;116.43;105.22;;;11.70;54.40;;;;;;5055173;28;20056;-78
2022/05/09 00:19:32;;;;;;;115.60;104.05;;;11.60;54.60;;;;;;5055054;28;20053;-78
2022/05/09 00:22:00;;;;;;;117.78;106.43;;;11.50;54.60;;;;;;5073979;28;20079;-78
2022/05/09 00:24:27;;;;;;;117.93;106.22;;;11.40;54.90;;;;;;5055494;28;20063;-78
2022/05/09 00:26:54;;;;;;;117.38;105.65;;;11.40;55.10;;;;;;5055175;28;20041;-78
2022/05/09 00:29:22;;;;;;;115.28;103.80;;;11.30;55.10;;;;;;5055441;28;20049;-78
2022/05/09 00:31:52;;;;;;;116.32;105.00;;;11.30;55.40;;;;;;5055479;28;20088;-78
2022/05/09 00:34:21;;;;;;;118.47;107.03;;;11.30;55.40;;;;;;5073890;28;20124;-78
2022/05/09 00:36:49;;;;;;;116.70;105.10;;;11.30;55.50;;;;;;5073454;28;20049;-78
2022/05/09 00:39:18;;;;;;;114.78;103.63;;;11.20;55.50;;;;;;5073190;28;20063;-78
2022/05/09 00:41:46;;;;;;;115.97;104.30;;;11.20;55.70;;;;;;5073395;28;20111;-78
2022/05/09 00:44:15;;;;;;;116.53;105.10;;;11.20;55.70;;;;;;5055177;28;20569;-78
2022/05/09 00:46:44;;;;;;;117.22;105.80;;;11.10;55.80;;;;;;5054822;28;20052;-78
2022/05/09 00:49:18;;;;;;;118.63;106.72;;;11.10;55.90;;;;;;5072971;28;20064;-78
2022/05/09 00:51:51;;;;;;;115.82;104.50;;;11.10;56.00;;;;;;5055415;28;20045;-78
2022/05/09 00:54:20;;;;;;;114.40;103.43;;;11.00;56.20;;;;;;5055057;28;20503;-78
2022/05/09 00:56:55;;;;;;;116.90;105.47;;;11.00;56.40;;;;;;5073288;28;20115;-78
2022/05/09 00:59:23;;;;;;;120.47;108.40;;;11.00;56.60;;;;;;5072767;28;20057;-78
2022/05/09 01:01:51;;;;;;;116.38;104.75;;;10.80;56.80;;;;;;5055069;28;20541;-78
2022/05/09 01:04:21;;;;;;;117.75;106.53;;;10.80;57.00;;;;;;5054874;28;20530;-78
2022/05/09 01:06:49;;;;;;;118.10;106.25;;;10.70;57.30;;;;;;5055150;28;20048;-78
2022/05/09 01:09:16;;;;;;;116.93;105.28;;;10.60;57.50;;;;;;5071304;28;20132;-78
2022/05/09 01:11:47;;;;;;;116.95;105.22;;;10.50;57.80;;;;;;5072447;28;20144;-78
2022/05/09 01:14:18;;;;;;;116.43;104.70;;;10.40;58.10;;;;;;5055214;28;20067;-78
2022/05/09 01:16:47;;;;;;;115.13;103.68;;;10.40;58.40;;;;;;5072918;28;20403;-78
2022/05/09 01:19:27;;;;;;;116.25;104.50;;;10.40;58.50;;;;;;5054182;28;20613;-78
2022/05/09 01:21:55;;;;;;;115.88;104.30;;;10.40;58.90;;;;;;5054798;28;20051;-78
2022/05/09 01:24:25;;;;;;;116.95;105.40;;;10.40;58.80;;;;;;5054753;28;20081;-78
2022/05/09 01:26:53;;;;;;;117.90;106.32;;;10.30;59.00;;;;;;5072356;28;20165;-78
2022/05/09 01:29:25;;;;;;;115.93;104.60;;;10.30;59.20;;;;;;5072552;28;20048;-78
2022/05/09 01:31:54;;;;;;;114.82;103.60;;;10.30;59.60;;;;;;5072929;28;20044;-78
2022/05/09 01:34:21;;;;;;;116.05;104.68;;;10.30;59.60;;;;;;5054326;28;20529;-78
2022/05/09 01:36:54;;;;;;;115.70;104.53;;;10.20;59.70;;;;;;5037972;28;20245;-78
2022/05/09 01:39:23;;;;;;;116.05;104.55;;;10.20;60.00;;;;;;5071059;28;20049;-78
2022/05/09 01:41:53;;;;;;;115.18;103.95;;;10.20;60.20;;;;;;5054683;28;20116;-78
2022/05/09 01:44:21;;;;;;;116.57;105.15;;;10.20;60.20;;;;;;5054409;28;20057;-78
2022/05/09 01:49:35;;;;;;;116.85;105.07;;;10.20;60.80;;;;;;5054125;28;20045;-77
2022/05/09 01:52:04;;;;;;;115.43;103.70;;;10.20;60.90;;;;;;5071567;28;20065;-78
2022/05/09 01:54:33;;;;;;;115.72;104.22;;;10.20;61.10;;;;;;5072345;28;20513;-78
2022/05/09 01:57:00;;;;;;;117.78;106.22;;;10.10;61.30;;;;;;5071721;28;20049;-78
2022/05/09 01:59:27;;;;;;;115.85;104.40;;;10.10;61.30;;;;;;5053872;28;20103;-78
2022/05/09 02:01:56;;;;;;;116.22;104.90;;;10.10;61.40;;;;;;5071957;28;20055;-78
2022/05/09 02:04:24;;;;;;;115.40;104.05;;;10.10;61.50;;;;;;5053851;28;20079;-78
2022/05/09 02:06:52;;;;;;;116.00;104.43;;;10.00;61.40;;;;;;5072086;28;20059;-78
2022/05/09 02:09:19;;;;;;;115.75;104.55;;;10.00;61.70;;;;;;5037038;28;20055;-78
2022/05/09 02:11:48;;;;;;;112.90;102.10;;;10.00;62.00;;;;;;5071409;28;20072;-78
2022/05/09 02:14:15;;;;;;;114.32;103.22;;;10.00;62.20;;;;;;5071899;28;20128;-78
2022/05/09 02:16:42;;;;;;;115.63;104.50;;;9.90;62.30;;;;;;5053643;28;20049;-77
2022/05/09 02:19:09;;;;;;;115.30;104.18;;;9.90;62.70;;;;;;5070014;28;20079;-77
2022/05/09 02:21:36;;;;;;;114.55;103.63;;;9.80;62.80;;;;;;5072175;28;20087;-77
2022/05/09 02:24:03;;;;;;;114.93;103.93;;;9.80;63.00;;;;;;5056831;28;20076;-78
2022/05/09 02:26:31;;;;;;;114.78;103.25;;;9.70;63.20;;;;;;5057286;28;20045;-78
2022/05/09 02:28:59;;;;;;;116.30;104.65;;;9.70;63.30;;;;;;5075290;28;20077;-77
2022/05/09 02:31:27;;;;;;;115.22;104.03;;;9.70;63.70;;;;;;5057355;28;20107;-78
2022/05/09 02:33:54;;;;;;;114.15;103.07;;;9.70;63.70;;;;;;5057501;28;20045;-78
2022/05/09 02:36:20;;;;;;;114.72;103.47;;;9.60;63.90;;;;;;5075617;28;20132;-77
2022/05/09 02:38:47;;;;;;;117.47;105.80;;;9.60;64.20;;;;;;5056554;28;20053;-77
2022/05/09 02:41:14;;;;;;;114.82;103.80;;;9.60;64.60;;;;;;5057257;28;20044;-78
2022/05/09 02:43:41;;;;;;;114.18;103.18;;;9.60;64.70;;;;;;5075203;28;20494;-77
2022/05/09 02:46:12;;;;;;;115.05;103.85;;;9.60;64.90;;;;;;5056964;28;20053;-78
2022/05/09 02:48:41;;;;;;;113.28;101.93;;;9.60;65.10;;;;;;5056999;28;20045;-77
2022/05/09 02:51:11;;;;;;;113.95;102.60;;;9.50;65.10;;;;;;5075508;28;20059;-78
2022/05/09 02:53:38;;;;;;;116.97;105.63;;;9.50;65.20;;;;;;5057073;28;20053;-77
2022/05/09 02:56:06;;;;;;;115.90;103.97;;;9.50;65.20;;;;;;5057280;28;20053;-78
2022/05/09 02:58:33;;;;;;;114.60;103.10;;;9.50;65.40;;;;;;5056591;28;20056;-78
2022/05/09 03:01:00;;;;;;;114.43;103.18;;;9.60;65.50;;;;;;5056500;28;20048;-77
2022/05/09 03:06:13;;;;;;;115.60;104.07;;;9.50;65.70;;;;;;5056973;28;20515;-78
2022/05/09 03:08:40;;;;;;;115.78;104.50;;;9.50;65.60;;;;;;5056435;28;20103;-78
2022/05/09 03:11:07;;;;;;;117.38;106.13;;;9.50;65.70;;;;;;5056536;28;20083;-77
2022/05/09 03:13:36;;;;;;;114.20;103.03;;;9.50;65.90;;;;;;5074755;28;20164;-78
2022/05/09 03:16:04;;;;;;;113.57;102.47;;;9.50;65.70;;;;;;5056453;28;20045;-77
2022/05/09 03:18:32;;;;;;;116.15;104.45;;;9.40;65.50;;;;;;5074085;28;20207;-78
2022/05/09 03:21:01;;;;;;;115.03;103.50;;;9.40;65.70;;;;;;5074453;28;20123;-78
2022/05/09 03:23:28;;;;;;;115.40;104.20;;;9.40;65.80;;;;;;5074573;28;20052;-77
2022/05/09 03:25:56;;;;;;;114.70;103.30;;;9.40;66.10;;;;;;5074384;28;20524;-77
2022/05/09 03:28:27;;;;;;;113.88;102.60;;;9.40;66.50;;;;;;5074161;28;20048;-78
2022/05/09 03:30:57;;;;;;;114.45;103.18;;;9.40;66.40;;;;;;5074246;28;20094;-78
2022/05/09 03:33:27;;;;;;;115.05;103.72;;;9.30;66.20;;;;;;5055897;28;20053;-78
2022/05/09 03:35:57;;;;;;;114.55;103.65;;;9.20;66.40;;;;;;5056398;28;20037;-77
2022/05/09 03:38:24;;;;;;;112.55;101.85;;;9.20;66.70;;;;;;5056323;28;20057;-77
2022/05/09 03:40:51;;;;;;;112.60;102.00;;;9.20;66.90;;;;;;5056157;28;20045;-77
2022/05/09 03:43:18;;;;;;;113.05;102.28;;;9.10;67.20;;;;;;5056073;28;20049;-77
2022/05/09 03:45:48;;;;;;;115.97;105.03;;;9.00;66.90;;;;;;5074372;28;20151;-77
2022/05/09 03:48:15;;;;;;;115.10;104.10;;;9.00;66.70;;;;;;5073825;28;20045;-77
2022/05/09 03:50:42;;;;;;;115.43;104.03;;;8.90;66.50;;;;;;5055793;28;20503;-77
2022/05/09 03:53:10;;;;;;;116.90;105.40;;;8.80;66.40;;;;;;5074040;28;20056;-77
2022/05/09 03:55:37;;;;;;;114.90;103.90;;;8.70;66.80;;;;;;5073930;28;20057;-77
2022/05/09 03:58:04;;;;;;;114.65;103.57;;;8.60;67.10;;;;;;5039013;28;20138;-78
2022/05/09 04:00:35;;;;;;;115.90;104.38;;;8.60;67.70;;;;;;5073704;28;20053;-77
2022/05/09 04:03:03;;;;;;;115.75;104.65;;;8.50;67.90;;;;;;5055709;28;20091;-77
2022/05/09 04:05:31;;;;;;;114.90;103.65;;;8.40;68.00;;;;;;5073571;28;20132;-77
2022/05/09 04:08:00;;;;;;;115.13;103.72;;;8.40;68.30;;;;;;5073310;28;20092;-77
2022/05/09 04:10:32;;;;;;;117.63;106.15;;;8.30;68.60;;;;;;5055088;28;20514;-77
2022/05/09 04:12:59;;;;;;;117.97;106.18;;;8.30;68.90;;;;;;5073974;28;20136;-77
2022/05/09 04:18:11;;;;;;;183.07;108.85;;;8.10;69.80;;;;;;5073221;28;20048;-77
2022/05/09 04:20:39;;;;;;;123.30;105.30;;;8.00;69.90;;;;;;5073370;28;20049;-78
2022/05/09 04:23:07;;;;;;;116.72;104.63;;;8.00;70.60;;;;;;5055959;28;20553;-77
2022/05/09 04:25:35;;;;;;;115.32;103.75;;;7.90;71.20;;;;;;5073368;28;20443;-77
2022/05/09 04:28:05;;;;;;;116.55;104.97;;;7.90;71.80;;;;;;5055402;28;20049;-77
2022/05/09 04:30:34;;;;;;;116.55;105.15;;;7.90;72.40;;;;;;5055673;28;20080;-77
2022/05/09 04:33:00;;;;;;;116.05;104.53;;;7.90;72.90;;;;;;5093662;28;20059;-77
2022/05/09 04:35:29;;;;;;;116.53;105.25;;;7.90;73.60;;;;;;5075273;28;20045;-77
2022/05/09 04:37:56;;;;;;;116.45;105.07;;;7.90;74.30;;;;;;5064509;28;20139;-77
2022/05/09 04:40:26;;;;;;;117.00;105.45;;;7.90;74.70;;;;;;5065865;28;20229;-77
2022/05/09 04:42:54;;;;;;;115.22;104.15;;;7.90;75.00;;;;;;5072589;28;20792;-77
2022/05/09 04:45:21;;;;;;;117.55;105.85;;;8.00;75.30;;;;;;5074243;28;20055;-77
2022/05/09 04:47:50;;;;;;;117.78;106.18;;;8.00;75.50;;;;;;5058010;28;20047;-77
2022/05/09 04:50:19;;;;;;;118.18;106.68;;;8.00;75.70;;;;;;5075261;28;20102;-77
2022/05/09 04:52:46;;;;;;;115.85;104.35;;;8.00;76.10;;;;;;5093682;28;20050;-77
2022/05/09 04:55:15;;;;;;;115.55;104.07;;;8.10;76.40;;;;;;5093420;28;20123;-77
2022/05/09 04:57:43;;;;;;;116.65;104.97;;;8.10;76.80;;;;;;5057823;28;20048;-77
2022/05/09 05:00:14;;;;;;;117.82;105.43;;;8.10;77.00;;;;;;5093155;28;20059;-77
2022/05/09 05:02:41;;;;;;;114.68;102.95;;;8.20;77.70;;;;;;5063900;28;20604;-78
2022/05/09 05:05:10;;;;;;;118.72;106.07;;;8.20;77.90;;;;;;5063425;28;20049;-78
2022/05/09 05:07:37;;;;;;;115.78;103.95;;;8.20;78.30;;;;;;5065118;28;20503;-78
2022/05/09 05:10:05;;;;;;;117.43;105.50;;;8.20;78.70;;;;;;5061606;28;20152;-78
2022/05/09 05:12:32;;;;;;;118.55;105.93;;;8.30;79.20;;;;;;5061791;28;20045;-78
2022/05/09 05:15:00;;;;;;;117.75;105.65;;;8.30;79.50;;;;;;5063565;28;20102;-78
2022/05/09 05:17:28;;;;;;;116.55;104.82;;;8.30;79.80;;;;;;5065094;28;20048;-78
2022/05/09 05:19:55;;;;;;;119.78;107.57;;;8.40;80.20;;;;;;5082776;28;20049;-78
2022/05/09 05:22:22;;;;;;;117.82;105.40;;;8.40;80.50;;;;;;5064598;28;20499;-78
2022/05/09 05:24:53;;;;;;;119.07;106.55;;;8.40;80.80;;;;;;5084108;28;20053;-78
2022/05/09 05:27:21;;;;;;;118.70;106.60;;;8.50;81.30;;;;;;5074160;28;20612;-78
2022/05/09 05:29:55;;;;;;;118.13;105.22;;;8.50;81.70;;;;;;5074308;28;20044;-78
2022/05/09 05:32:26;;;;;;;119.30;107.00;;;8.50;81.90;;;;;;5074143;28;20059;-78
2022/05/09 05:34:55;;;;;;;118.15;106.03;;;8.50;82.30;;;;;;5074637;28;20134;-78
2022/05/09 05:37:22;;;;;;;117.90;105.45;;;8.60;82.60;;;;;;5066976;28;20806;-80
2022/05/09 05:39:49;;;;;;;116.70;104.47;;;8.60;83.20;;;;;;5063311;28;20059;-78
2022/05/09 05:42:18;;;;;;;117.22;105.45;;;8.60;83.50;;;;;;5081508;28;20057;-79
2022/05/09 05:44:45;;;;;;;116.07;104.35;;;8.70;84.00;;;;;;5060967;28;20510;-79
2022/05/09 05:47:15;;;;;;;135.90;108.30;;;8.70;83.70;;;;;;5075043;28;20056;-79
2022/05/09 05:49:43;;;;;;;118.45;106.35;;;8.70;83.80;;;;;;5067033;28;20127;-79
2022/05/09 05:52:12;;;;;;;115.68;103.53;;;8.80;84.50;;;;;;5080910;28;20612;-78
2022/05/09 05:54:41;;;;;;;116.07;104.10;;;8.80;85.80;;;;;;5084283;28;20083;-78
2022/05/09 05:57:15;;;;;;;119.97;107.88;;;8.80;86.00;;;;;;5066650;28;20053;-78
2022/05/09 05:59:48;;;;;;;173.30;109.40;;;8.90;86.70;;;;;;5067604;28;20044;-79
2022/05/09 06:02:15;;;;;;;120.13;106.68;;;8.90;87.50;;;;;;5084517;28;20057;-79
2022/05/09 06:04:42;;;;;;;129.75;107.65;;;8.90;88.30;;;;;;5086164;28;20136;-78
2022/05/09 06:07:10;;;;;;;120.20;107.80;;;8.90;88.60;;;;;;5085045;28;20053;-79
2022/05/09 06:09:39;;;;;;;118.32;106.03;;;9.00;89.60;;;;;;5066130;28;20049;-79
2022/05/09 06:12:07;;;;;;;119.40;107.07;;;9.00;90.30;;;;;;5067979;28;20060;-78
2022/05/09 06:14:34;;;;;;;116.70;104.90;;;9.10;90.30;;;;;;5066365;28;20128;-78
2022/05/09 06:17:02;;;;;;;119.72;107.65;;;9.10;90.70;;;;;;5065903;28;20060;-79
2022/05/09 06:19:29;;;;;;;118.38;106.40;;;9.20;91.20;;;;;;5066545;28;20072;-80
2022/05/09 06:21:58;;;;;;;118.13;105.68;;;9.20;91.40;;;;;;5067312;28;20053;-80
2022/05/09 06:24:25;;;;;;;116.78;104.80;;;9.30;91.40;;;;;;5067631;28;20041;-80
2022/05/09 06:26:53;;;;;;;116.85;105.07;;;9.40;91.70;;;;;;5067472;28;20114;-81
2022/05/09 06:29:20;;;;;;;115.95;104.68;;;9.50;92.00;;;;;;5067744;28;20080;-80
2022/05/09 06:31:47;;;;;;;118.07;105.10;;;9.50;92.20;;;;;;5067121;28;20076;-80
2022/05/09 06:34:14;;;;;;;116.03;104.53;;;9.60;92.50;;;;;;5082962;28;20480;-80
2022/05/09 06:36:43;;;;;;;114.63;103.05;;;9.60;92.30;;;;;;5084083;28;20544;-81
2022/05/09 06:39:11;;;;;;;115.72;103.97;;;9.70;92.30;;;;;;5089662;28;20053;-80
2022/05/09 06:41:38;;;;;;;115.65;104.07;;;9.80;92.50;;;;;;5078135;28;20179;-80
2022/05/09 06:44:06;;;;;;;116.07;104.30;;;9.90;92.60;;;;;;5089903;28;20110;-80
2022/05/09 06:46:34;;;;;;;118.32;106.50;;;10.00;92.50;;;;;;5076269;28;20586;-80
2022/05/09 06:49:01;;;;;;;116.78;105.18;;;10.00;92.60;;;;;;5064499;28;20052;-78
2022/05/09 06:51:28;;;;;;;115.70;104.13;;;10.10;92.50;;;;;;5067228;28;20059;-80
2022/05/09 06:53:55;;;;;;;115.22;104.22;;;10.20;92.60;;;;;;5069837;28;20076;-79
2022/05/09 06:56:22;;;;;;;116.00;104.38;;;10.30;92.50;;;;;;5068728;28;20068;-78
2022/05/09 06:58:49;;;;;;;120.22;107.88;;;10.30;92.40;;;;;;5065795;28;20056;-79
2022/05/09 07:01:19;;;;;;;117.57;105.43;;;10.40;92.30;;;;;;5090307;28;20066;-79
2022/05/09 07:03:47;;;;;;;114.22;103.05;;;10.50;92.30;;;;;;5070593;28;20056;-80
2022/05/09 07:06:16;;;;;;;115.03;103.85;;;10.60;92.20;;;;;;5064768;28;20436;-80
2022/05/09 07:08:43;;;;;;;114.40;102.93;;;10.70;92.00;;;;;;5066170;28;20053;-80
2022/05/09 07:11:12;;;;;;;117.20;105.60;;;10.70;91.80;;;;;;5063449;28;20507;-80
2022/05/09 07:13:40;;;;;;;115.78;104.03;;;10.80;91.90;;;;;;5084567;28;20053;-81
2022/05/09 07:16:08;;;;;;;165.07;107.80;;;10.90;91.90;;;;;;5066454;28;20056;-80
2022/05/09 07:18:38;;;;;;;115.20;103.50;;;10.90;91.90;;;;;;5066059;28;20092;-80
2022/05/09 07:21:06;;;;;;;115.75;104.18;;;11.00;92.00;;;;;;5084870;28;20048;-80
2022/05/09 07:23:33;;;;;;;116.25;105.13;;;11.10;91.90;;;;;;5083215;28;20056;-81
2022/05/09 07:26:01;;;;;;;116.75;104.70;;;11.20;91.80;;;;;;5065147;28;20055;-82
2022/05/09 07:28:28;;;;;;;117.57;106.10;;;11.30;91.60;;;;;;5067844;28;20106;-80
2022/05/09 07:30:57;;;;;;;115.65;103.70;;;11.30;91.30;;;;;;5083437;28;20049;-79
2022/05/09 07:33:24;;;;;;;115.90;104.72;;;11.50;91.00;;;;;;5067116;28;20049;-78
2022/05/09 07:35:52;;;;;;;116.13;104.53;;;11.50;90.70;;;;;;5064523;28;20545;-79
2022/05/09 07:38:19;;;;;;;116.38;104.78;;;11.60;90.70;;;;;;5078607;28;20051;-78
2022/05/09 07:40:47;;;;;;;117.32;105.53;;;11.70;90.50;;;;;;5066016;28;20068;-78
2022/05/09 07:43:17;;;;;;;117.75;105.85;;;11.80;90.40;;;;;;5087086;28;20057;-78
2022/05/09 07:45:45;;;;;;;116.60;105.07;;;11.80;90.20;;;;;;5084414;28;20053;-78
2022/05/09 07:48:12;;;;;;;117.68;105.90;;;11.80;90.00;;;;;;5063473;28;20049;-81
2022/05/09 07:50:40;;;;;;;116.43;104.28;;;11.90;89.60;;;;;;5064843;28;20059;-81
2022/05/09 07:53:11;;;;;;;115.75;104.45;;;12.00;89.30;;;;;;5065511;28;20049;-81
2022/05/09 07:55:39;;;;;;;115.30;103.97;;;12.00;89.10;;;;;;5050900;28;20049;-79
2022/05/09 07:58:07;;;;;;;115.97;104.47;;;12.10;89.10;;;;;;5064705;28;20053;-81
2022/05/09 08:00:35;;;;;;;116.70;105.38;;;12.20;88.50;;;;;;5066562;28;20082;-80
2022/05/09 08:03:05;;;;;;;118.65;106.47;;;12.20;88.70;;;;;;5066436;28;20061;-80
2022/05/09 08:05:33;;;;;;;115.88;104.55;;;12.30;88.90;;;;;;5064315;28;20053;-80
2022/05/09 08:08:01;;;;;;;116.80;105.38;;;12.40;89.00;;;;;;5083238;28;20074;-81
2022/05/09 08:10:30;;;;;;;128.73;103.97;;;12.50;89.30;;;;;;5051598;28;20529;-81
2022/05/09 08:12:58;;;;;;;117.88;106.60;;;12.60;88.40;;;;;;5063533;28;20055;-79
2022/05/09 08:15:26;;;;;;;117.22;105.75;;;12.70;87.30;;;;;;5069240;28;20048;-80
2022/05/09 08:17:53;;;;;;;119.47;107.75;;;12.80;86.20;;;;;;5067797;28;20624;-79
2022/05/09 08:20:21;;;;;;;117.85;106.50;;;12.90;85.90;;;;;;5064955;28;20045;-79
2022/05/09 08:22:49;;;;;;;117.43;106.03;;;13.00;86.10;;;;;;5082218;28;20620;-80
2022/05/09 08:25:16;;;;;;;118.10;106.65;;;13.10;85.80;;;;;;5084864;28;20048;-78
2022/05/09 08:27:45;;;;;;;116.03;104.50;;;13.10;85.30;;;;;;5058073;28;20057;-78
2022/05/09 08:30:13;;;;;;;117.20;105.97;;;13.20;85.00;;;;;;5061945;28;20049;-78
2022/05/09 08:32:40;;;;;;;115.18;104.25;;;13.30;84.60;;;;;;5065905;28;20561;-78
2022/05/09 08:35:09;;;;;;;116.18;105.40;;;13.40;84.10;;;;;;5065386;28;20045;-79
2022/05/09 08:37:36;;;;;;;116.95;105.80;;;13.50;84.00;;;;;;5063692;28;20497;-80
2022/05/09 08:40:04;;;;;;;118.85;107.47;;;13.60;83.50;;;;;;5065176;28;20164;-80
2022/05/09 08:42:40;;;;;;;116.03;104.95;;;13.70;83.10;;;;;;5063960;28;20154;-80
2022/05/09 08:45:27;;;;;;;118.15;106.75;;;13.80;82.30;;;;;;5085250;28;20053;-81
2022/05/09 08:48:22;;;;;;;116.63;105.40;;;13.90;80.90;;;;;;5065086;28;20060;-81
2022/05/09 08:50:55;;;;;;;;;;;14.00;80.80;;;;;;5075114;28;20053;-80
2022/05/09 08:53:26;;;;;;;116.32;104.97;;;14.20;80.10;;;;;;5067045;28;20435;-80
2022/05/09 08:55:54;;;;;;;117.70;106.72;;;14.20;80.10;;;;;;5065206;28;20147;-79
2022/05/09 08:58:37;;;;;;;116.10;105.55;;;14.30;79.50;;;;;;5064276;28;20049;-79
2022/05/09 09:01:12;;;;;;;118.10;106.95;;;14.40;78.10;;;;;;5064294;28;20506;-78
2022/05/09 09:03:43;;;;;;;117.78;106.95;;;14.60;77.80;;;;;;5063918;28;20056;-78
2022/05/09 09:06:21;;;;;;;119.45;108.70;;;14.70;77.60;;;;;;5061998;28;20049;-79
2022/05/09 09:08:59;;;;;;;120.15;109.20;;;14.80;76.70;;;;;;5063376;28;20052;-80
2022/05/09 09:11:37;;;;;;;120.63;109.38;;;15.00;76.00;;;;;;5083132;28;20055;-81
2022/05/09 09:14:10;;;;;;;120.68;109.50;;;15.10;75.80;;;;;;5064323;28;20057;-82
2022/05/09 09:17:09;;;;;;;126.10;114.82;;;15.20;75.40;;;;;;5064248;28;20053;-80
2022/05/09 09:19:48;;;;;;;122.82;111.47;;;15.30;74.40;;;;;;5070109;28;20051;-79
2022/05/09 09:22:29;;;;;;;121.55;109.28;;;15.30;73.00;;;;;;5067600;28;20513;-79
2022/05/09 09:25:19;;;;;;;119.47;108.38;;;15.40;73.20;;;;;;5067634;28;20048;-80
2022/05/09 09:27:49;;;;;;;119.97;109.20;;;15.40;73.50;;;;;;5084956;28;20083;-77
2022/05/09 09:30:18;;;;;;;118.50;108.15;;;15.50;72.90;;;;;;5062326;28;20049;-85
2022/05/09 09:32:53;;;;;;;119.55;109.07;;;15.60;71.40;;;;;;5054453;28;20049;-83
2022/05/09 09:35:30;;;;;;;119.30;108.57;;;15.70;70.20;;;;;;5040344;28;20076;-78
2022/05/09 09:38:03;;;;;;;122.25;111.32;;;15.90;69.50;;;;;;5037234;28;20045;-78
2022/05/09 09:40:30;;;;;;;123.05;112.65;;;16.00;69.20;;;;;;5072412;28;20063;-80
2022/05/09 09:42:58;;;;;;;121.57;110.72;;;16.10;68.60;;;;;;5072204;28;20669;-80
2022/05/09 09:45:32;;;;;;;120.72;109.82;;;16.30;68.20;;;;;;5054452;28;20132;-80
2022/05/09 09:48:13;;;;;;;122.55;111.60;;;16.40;67.30;;;;;;5054068;28;20135;-80
2022/05/09 09:51:03;;;;;;;122.07;111.10;;;16.50;65.90;;;;;;5053833;28;20073;-80
2022/05/09 09:53:34;;;;;;;119.82;109.40;;;16.60;64.10;;;;;;5054643;28;20048;-80
2022/05/09 09:56:05;;;;;;;121.63;110.78;;;16.80;64.90;;;;;;5054457;28;20103;-80
2022/05/09 09:58:33;;;;;;;123.13;111.38;;;16.90;65.90;;;;;;5072273;28;20258;-81
2022/05/09 10:01:07;;;;;;;122.75;111.13;;;16.90;64.70;;;;;;5056569;28;20060;-80
2022/05/09 10:03:38;;;;;;;121.03;110.43;;;17.00;62.30;;;;;;5053556;28;20057;-80
2022/05/09 10:06:14;;;;;;;124.65;113.55;;;17.20;62.30;;;;;;5053542;28;20052;-80
2022/05/09 10:08:42;;;;;;;121.50;110.88;;;17.30;61.80;;;;;;5071825;28;20057;-80
2022/05/09 10:11:11;;;;;;;122.03;111.40;;;17.40;60.20;;;;;;5053752;28;20060;-80
2022/05/09 10:13:41;;;;;;;154.60;115.78;;;17.50;59.60;;;;;;5053559;28;20061;-80
2022/05/09 10:16:12;;;;;;;121.20;110.53;;;17.50;59.40;;;;;;5072585;28;20132;-80
2022/05/09 10:18:43;;;;;;;121.47;111.00;;;17.60;59.60;;;;;;5071641;28;20053;-80
2022/05/09 10:24:47;;;;;;;121.90;111.63;;;17.70;58.90;;;;;;5072636;28;20063;-80
2022/05/09 10:26:57;;;;;;;121.75;111.45;;;17.90;58.40;;;;;;5053455;28;20609;-81
2022/05/09 10:29:28;;;;;;;124.20;113.90;;;18.00;58.20;;;;;;5053904;28;20056;-80
2022/05/09 10:32:00;;;;;;;123.82;113.35;;;18.10;57.60;;;;;;5053720;28;20051;-80
2022/05/09 10:34:37;;;;;;;127.88;117.35;;;18.10;58.10;;;;;;5054113;28;20507;-80
2022/05/09 10:37:10;;;;;;;128.00;117.72;;;18.20;57.90;;;;;;5053713;28;20045;-75
2022/05/09 10:39:43;;;;;;;124.32;114.22;;;18.30;56.30;;;;;;5053814;28;20053;-75
2022/05/09 10:42:10;;;;;;;127.70;117.00;;;18.40;57.20;;;;;;5062205;28;20507;-76
2022/05/09 10:44:44;;;;;;;125.85;115.57;;;18.40;55.80;;;;;;5070466;28;20465;-75
2022/05/09 10:47:28;;;;;;;126.90;117.00;;;18.50;56.70;;;;;;5068258;28;20148;-75
2022/05/09 10:50:03;;;;;;;127.25;117.00;;;18.60;57.50;;;;;;5084939;28;20055;-75
2022/05/09 10:52:42;;;;;;;126.93;115.90;;;18.60;57.10;;;;;;5079309;28;20060;-75
2022/05/09 10:55:18;;;;;;;138.25;127.55;;;18.70;56.70;;;;;;5065478;28;20069;-76
2022/05/09 10:57:47;;;;;;;132.93;122.55;;;18.80;55.50;;;;;;5063024;28;20062;-76
2022/05/09 11:00:18;;;;;;;137.60;126.75;;;18.90;53.70;;;;;;5091266;28;20058;-75
2022/05/09 11:02:57;;;;;;;130.10;119.65;;;19.00;55.10;;;;;;5077476;28;20057;-75
2022/05/09 11:05:29;;;;;;;127.07;116.38;;;19.10;53.80;;;;;;5077437;28;20052;-75
2022/05/09 11:08:05;;;;;;;127.60;117.05;;;19.20;54.70;;;;;;5071303;28;20052;-75
2022/05/09 11:10:39;;;;;;;127.63;117.03;;;19.30;52.80;;;;;;5085192;28;20060;-74
2022/05/09 11:13:21;;;;;;;127.43;117.05;;;19.40;53.80;;;;;;5068004;28;20040;-74
2022/05/09 11:15:57;;;;;;;128.18;117.38;;;19.50;53.70;;;;;;5074432;28;20044;-75
2022/05/09 11:18:32;;;;;;;129.10;118.55;;;19.50;52.90;;;;;;5074912;28;20049;-74
2022/05/09 11:21:08;;;;;;;129.45;118.85;;;19.60;52.80;;;;;;5076590;28;20057;-73
2022/05/09 11:23:46;;;;;;;131.80;121.03;;;19.70;53.00;;;;;;5084835;28;20067;-75
2022/05/09 11:26:22;;;;;;;128.63;118.32;;;19.80;52.30;;;;;;5068428;28;20044;-75
2022/05/09 11:29:10;;;;;;;129.52;119.10;;;19.90;52.70;;;;;;5068292;28;20075;-74
2022/05/09 11:31:50;;;;;;;131.88;121.03;;;20.10;53.50;;;;;;5068760;28;20055;-72
2022/05/09 11:34:28;;;;;;;136.23;125.55;;;20.20;53.20;;;;;;5068914;28;20131;-74
2022/05/09 11:37:10;;;;;;;129.30;118.65;;;20.30;52.40;;;;;;5063176;28;20114;-73
2022/05/09 11:39:52;;;;;;;130.60;120.00;;;20.40;51.20;;;;;;5081585;28;20526;-73
2022/05/09 11:45:21;;;;;;;141.23;130.35;;;20.50;50.90;;;;;;5071705;28;20049;-73
2022/05/09 11:47:59;;;;;;;136.45;125.90;;;20.50;52.00;;;;;;5091723;28;20063;-72
2022/05/09 11:50:47;;;;;;;137.20;126.40;;;20.60;51.70;;;;;;5066073;28;20490;-74
2022/05/09 11:53:18;;;;;;;131.65;120.57;;;20.60;51.80;;;;;;5060935;28;20049;-72
2022/05/09 11:55:48;;;;;;;130.05;119.78;;;20.70;50.20;;;;;;5068694;28;20044;-74
2022/05/09 11:58:16;;;;;;;131.68;121.28;;;20.80;50.90;;;;;;5063838;28;20048;-74
2022/05/09 12:00:50;;;;;;;137.63;127.03;;;20.90;50.70;;;;;;5068039;28;20067;-75
2022/05/09 12:04:03;;;;;;;132.98;122.60;;;21.00;51.20;;;;;;5073302;28;20461;-75
2022/05/09 12:06:42;;;;;;;131.00;120.60;;;21.00;51.00;;;;;;5092431;28;20052;-75
2022/05/09 12:09:13;;;;;;;131.75;121.32;;;21.20;49.00;;;;;;5093979;28;20059;-75
2022/05/09 12:11:52;;;;;;;131.27;120.75;;;21.10;48.60;;;;;;5076940;28;20159;-75
2022/05/09 12:14:53;;;;;;;131.48;120.95;;;21.20;48.40;;;;;;5094308;28;20059;-75
2022/05/09 12:17:36;;;;;;;130.45;120.03;;;21.20;49.50;;;;;;5073185;28;20045;-75
2022/05/09 12:20:08;;;;;;;;;;;21.30;48.00;;;;;;5084926;28;20062;-75
2022/05/09 12:22:41;;;;;;;128.82;118.10;;;21.30;48.90;;;;;;5067855;28;20015;-72
2022/05/09 12:25:12;;;;;;;130.43;120.03;;;21.40;49.00;;;;;;5081944;28;20439;-72
2022/05/09 12:27:53;;;;;;;131.20;120.53;;;21.40;49.10;;;;;;5056543;28;20512;-73
2022/05/09 12:30:45;;;;;;;131.55;121.35;;;21.40;49.40;;;;;;5059383;28;20537;-73
2022/05/09 12:33:26;;;;;;;133.57;122.93;;;21.40;50.20;;;;;;5066329;28;20062;-73
2022/05/09 12:35:55;;;;;;;132.45;122.28;;;21.50;48.70;;;;;;5084178;28;20576;-73
2022/05/09 12:38:29;;;;;;;133.52;122.97;;;21.50;48.90;;;;;;5090397;28;20128;-72
2022/05/09 12:41:03;;;;;;;135.10;122.45;;;21.60;47.50;;;;;;5093509;28;20533;-75
2022/05/09 12:43:35;;;;;;;131.85;121.10;;;21.60;47.70;;;;;;5057194;28;20042;-73
2022/05/09 12:46:04;;;;;;;134.18;123.45;;;21.70;47.60;;;;;;5053780;28;20060;-73